Time,TemperatureF,DewpointF,PressureIn,WindDirection,WindDirectionDegrees,WindSpeedMPH,WindSpeedGustMPH,Humidity,HourlyPrecipIn,Conditions,Clouds,dailyrainin,SoftwareType,DateUTC
2013-06-25 00:01:00,70.9,70.3,29.92,SW,225,0.0,0.0,98,0.00,,,0.02,meteohub,2013-06-25 04:01:00,
2013-06-25 00:03:00,70.9,70.3,29.92,SW,225,0.0,0.0,98,0.00,,,0.02,meteohub,2013-06-25 04:03:00,
2013-06-25 00:04:00,70.9,70.3,29.92,SW,225,0.0,0.0,98,0.00,,,0.02,meteohub,2013-06-25 04:04:00,
2013-06-25 00:09:00,71.1,70.5,29.92,South,180,0.0,0.0,98,0.00,,,0.00,meteohub,2013-06-25 04:09:00,
2013-06-25 00:15:00,71.2,70.7,29.92,SW,225,0.0,0.0,98,0.00,,,0.00,meteohub,2013-06-25 04:15:00,
2013-06-25 00:20:00,71.2,70.7,29.92,South,180,0.0,0.0,98,0.00,,,0.00,meteohub,2013-06-25 04:20:00,
2013-06-25 00:25:00,71.2,70.7,29.92,East,90,0.0,0.0,98,0.00,,,0.00,meteohub,2013-06-25 04:25:00,
2013-06-25 00:30:00,71.1,70.5,29.91,SW,225,0.0,0.0,98,0.00,,,0.00,meteohub,2013-06-25 04:30:00,
2013-06-25 00:35:00,70.9,70.3,29.92,NW,315,1.0,2.0,98,0.00,,,0.00,meteohub,2013-06-25 04:35:00,
2013-06-25 00:40:00,70.9,70.3,29.91,SW,225,1.0,2.0,98,0.00,,,0.00,meteohub,2013-06-25 04:40:00,
2013-06-25 00:45:00,70.9,70.3,29.92,South,180,0.0,2.0,98,0.00,,,0.00,meteohub,2013-06-25 04:45:00,
2013-06-25 00:51:00,70.9,70.0,29.92,South,180,0.0,2.0,97,0.00,,,0.00,meteohub,2013-06-25 04:51:00,
2013-06-25 00:56:00,70.7,69.8,29.92,South,180,1.0,2.0,97,0.00,,,0.00,meteohub,2013-06-25 04:56:00,
2013-06-25 01:01:00,70.5,69.3,29.92,SW,225,0.0,4.0,96,0.00,,,0.00,meteohub,2013-06-25 05:01:00,
2013-06-25 01:06:00,70.3,69.1,29.92,South,180,3.0,4.0,96,0.00,,,0.00,meteohub,2013-06-25 05:06:00,
2013-06-25 01:11:00,70.2,68.7,29.91,SW,225,0.0,4.0,95,0.00,,,0.00,meteohub,2013-06-25 05:11:00,
2013-06-25 01:16:00,70.2,68.7,29.91,North,0,0.0,3.0,95,0.00,,,0.00,meteohub,2013-06-25 05:16:00,
2013-06-25 01:21:00,69.8,68.4,29.91,North,0,0.0,3.0,95,0.00,,,0.00,meteohub,2013-06-25 05:21:00,
2013-06-25 01:26:00,69.4,68.0,29.91,East,90,0.0,1.0,95,0.00,,,0.00,meteohub,2013-06-25 05:26:00,
2013-06-25 01:31:00,69.3,67.8,29.91,NE,45,0.0,1.0,95,0.00,,,0.00,meteohub,2013-06-25 05:31:00,
2013-06-25 01:37:00,69.1,67.6,29.91,NE,45,0.0,0.0,95,0.00,,,0.00,meteohub,2013-06-25 05:37:00,
2013-06-25 01:42:00,68.9,67.5,29.91,NE,45,0.0,0.0,95,0.00,,,0.00,meteohub,2013-06-25 05:42:00,
2013-06-25 01:47:00,68.5,67.1,29.92,NE,45,0.0,0.0,95,0.00,,,0.00,meteohub,2013-06-25 05:47:00,
2013-06-25 01:52:00,68.4,66.9,29.92,NE,45,0.0,0.0,95,0.00,,,0.00,meteohub,2013-06-25 05:52:00,
2013-06-25 01:57:00,68.2,66.7,29.92,NE,45,0.0,0.0,95,0.00,,,0.00,meteohub,2013-06-25 05:57:00,
2013-06-25 02:02:00,68.2,66.7,29.92,NE,45,0.0,0.0,95,0.00,,,0.00,meteohub,2013-06-25 06:02:00,
2013-06-25 02:07:00,68.2,66.7,29.93,NE,45,0.0,0.0,95,0.00,,,0.00,meteohub,2013-06-25 06:07:00,
2013-06-25 02:12:00,67.5,66.2,29.92,North,0,0.0,0.0,96,0.00,,,0.00,meteohub,2013-06-25 06:12:00,
2013-06-25 02:17:00,67.3,66.0,29.93,North,0,0.0,0.0,96,0.00,,,0.00,meteohub,2013-06-25 06:17:00,
2013-06-25 02:22:00,67.3,66.0,29.92,NE,45,0.0,0.0,96,0.00,,,0.00,meteohub,2013-06-25 06:22:00,
2013-06-25 02:27:00,67.3,66.4,29.92,NE,45,0.0,0.0,97,0.00,,,0.00,meteohub,2013-06-25 06:27:00,
2013-06-25 02:32:00,67.3,66.4,29.92,NE,45,0.0,0.0,97,0.00,,,0.00,meteohub,2013-06-25 06:32:00,
2013-06-25 02:37:00,67.3,66.4,29.92,NE,45,0.0,0.0,97,0.00,,,0.00,meteohub,2013-06-25 06:37:00,
2013-06-25 02:42:00,67.1,66.2,29.91,NE,45,0.0,0.0,97,0.00,,,0.00,meteohub,2013-06-25 06:42:00,
2013-06-25 02:47:00,67.1,66.2,29.91,NE,45,0.0,0.0,97,0.00,,,0.00,meteohub,2013-06-25 06:47:00,
2013-06-25 02:52:00,67.1,66.2,29.91,NE,45,0.0,0.0,97,0.00,,,0.00,meteohub,2013-06-25 06:52:00,
2013-06-25 02:57:00,67.1,66.2,29.91,NE,45,0.0,0.0,97,0.00,,,0.00,meteohub,2013-06-25 06:57:00,
2013-06-25 03:02:00,67.1,66.2,29.91,NE,45,0.0,0.0,97,0.00,,,0.00,meteohub,2013-06-25 07:02:00,
2013-06-25 03:07:00,67.1,66.2,29.91,NE,45,0.0,0.0,97,0.00,,,0.00,meteohub,2013-06-25 07:07:00,
2013-06-25 03:12:00,67.1,66.2,29.91,NE,45,0.0,0.0,97,0.00,,,0.00,meteohub,2013-06-25 07:12:00,
2013-06-25 03:17:00,67.1,66.2,29.92,North,0,0.0,0.0,97,0.00,,,0.00,meteohub,2013-06-25 07:17:00,
2013-06-25 03:22:00,67.1,66.2,29.91,North,0,0.0,0.0,97,0.00,,,0.00,meteohub,2013-06-25 07:22:00,
2013-06-25 03:27:00,67.1,66.2,29.91,NW,315,0.0,0.0,97,0.00,,,0.00,meteohub,2013-06-25 07:27:00,
2013-06-25 03:32:00,67.1,66.2,29.91,NW,315,0.0,0.0,97,0.00,,,0.00,meteohub,2013-06-25 07:32:00,
2013-06-25 03:37:00,67.1,66.2,29.91,North,0,0.0,0.0,97,0.00,,,0.00,meteohub,2013-06-25 07:37:00,
2013-06-25 03:42:00,67.3,66.4,29.91,NE,45,0.0,3.0,97,0.00,,,0.00,meteohub,2013-06-25 07:42:00,
2013-06-25 03:47:00,67.1,66.2,29.91,NE,45,0.0,3.0,97,0.00,,,0.00,meteohub,2013-06-25 07:47:00,
2013-06-25 03:52:00,67.1,66.2,29.91,NE,45,0.0,3.0,97,0.00,,,0.00,meteohub,2013-06-25 07:52:00,
2013-06-25 03:57:00,67.1,66.2,29.91,North,0,0.0,0.0,97,0.00,,,0.00,meteohub,2013-06-25 07:57:00,
2013-06-25 04:02:00,67.1,66.2,29.91,NW,315,0.0,0.0,97,0.00,,,0.00,meteohub,2013-06-25 08:02:00,
2013-06-25 04:07:00,67.1,66.2,29.91,NW,315,0.0,0.0,97,0.00,,,0.00,meteohub,2013-06-25 08:07:00,
2013-06-25 04:12:00,67.1,66.2,29.91,South,180,0.0,0.0,97,0.00,,,0.00,meteohub,2013-06-25 08:12:00,
2013-06-25 04:17:00,67.1,66.2,29.92,North,0,0.0,0.0,97,0.00,,,0.00,meteohub,2013-06-25 08:17:00,
2013-06-25 04:22:00,67.1,66.2,29.91,NW,315,0.0,0.0,97,0.00,,,0.00,meteohub,2013-06-25 08:22:00,
2013-06-25 04:27:00,67.3,66.4,29.92,South,180,0.0,0.0,97,0.00,,,0.00,meteohub,2013-06-25 08:27:00,
2013-06-25 04:33:00,67.1,66.2,29.92,NE,45,0.0,0.0,97,0.00,,,0.00,meteohub,2013-06-25 08:33:00,
2013-06-25 04:38:00,67.1,66.2,29.92,NE,45,0.0,0.0,97,0.00,,,0.00,meteohub,2013-06-25 08:38:00,
2013-06-25 04:43:00,66.9,66.0,29.92,NE,45,0.0,0.0,97,0.00,,,0.00,meteohub,2013-06-25 08:43:00,
2013-06-25 04:48:00,66.9,66.0,29.92,NE,45,0.0,0.0,97,0.00,,,0.00,meteohub,2013-06-25 08:48:00,
2013-06-25 04:53:00,66.7,65.8,29.92,NE,45,0.0,0.0,97,0.00,,,0.00,meteohub,2013-06-25 08:53:00,
2013-06-25 04:58:00,66.7,65.8,29.92,NE,45,0.0,0.0,97,0.00,,,0.00,meteohub,2013-06-25 08:58:00,
2013-06-25 05:03:00,66.6,65.7,29.92,NE,45,0.0,0.0,97,0.00,,,0.00,meteohub,2013-06-25 09:03:00,
2013-06-25 05:08:00,66.6,65.7,29.92,NE,45,0.0,0.0,97,0.00,,,0.00,meteohub,2013-06-25 09:08:00,
2013-06-25 05:14:00,66.6,65.7,29.92,SW,225,0.0,0.0,97,0.00,,,0.00,meteohub,2013-06-25 09:14:00,
2013-06-25 05:19:00,66.6,65.7,29.92,East,90,0.0,0.0,97,0.00,,,0.00,meteohub,2013-06-25 09:19:00,
2013-06-25 05:24:00,66.6,65.7,29.92,East,90,0.0,0.0,97,0.00,,,0.00,meteohub,2013-06-25 09:24:00,
2013-06-25 05:29:00,66.6,65.7,29.92,East,90,0.0,0.0,97,0.00,,,0.00,meteohub,2013-06-25 09:29:00,
2013-06-25 05:34:00,66.6,65.7,29.92,East,90,0.0,0.0,97,0.00,,,0.00,meteohub,2013-06-25 09:34:00,
2013-06-25 05:39:00,66.4,65.5,29.92,North,0,0.0,0.0,97,0.00,,,0.00,meteohub,2013-06-25 09:39:00,
2013-06-25 05:44:00,66.4,65.5,29.92,NE,45,0.0,0.0,97,0.00,,,0.00,meteohub,2013-06-25 09:44:00,
2013-06-25 05:49:00,66.2,65.3,29.92,NE,45,0.0,0.0,97,0.00,,,0.00,meteohub,2013-06-25 09:49:00,
2013-06-25 05:54:00,66.2,65.3,29.92,NE,45,0.0,0.0,97,0.00,,,0.00,meteohub,2013-06-25 09:54:00,
2013-06-25 06:00:00,66.2,65.3,29.93,NE,45,0.0,0.0,97,0.00,,,0.00,meteohub,2013-06-25 10:00:00,
2013-06-25 06:05:00,66.2,65.3,29.93,NE,45,0.0,0.0,97,0.00,,,0.00,meteohub,2013-06-25 10:05:00,
2013-06-25 06:10:00,66.2,65.3,29.93,NE,45,0.0,0.0,97,0.00,,,0.00,meteohub,2013-06-25 10:10:00,
2013-06-25 06:15:00,66.4,65.5,29.93,SE,135,0.0,0.0,97,0.00,,,0.00,meteohub,2013-06-25 10:15:00,
2013-06-25 06:20:00,66.4,65.5,29.93,NE,45,0.0,0.0,97,0.00,,,0.00,meteohub,2013-06-25 10:20:00,
2013-06-25 06:25:00,66.4,65.5,29.93,NE,45,0.0,0.0,97,0.00,,,0.00,meteohub,2013-06-25 10:25:00,
2013-06-25 06:30:00,66.4,65.5,29.93,NE,45,0.0,0.0,97,0.00,,,0.00,meteohub,2013-06-25 10:30:00,
2013-06-25 06:35:00,66.4,65.8,29.93,NE,45,0.0,0.0,98,0.00,,,0.00,meteohub,2013-06-25 10:35:00,
2013-06-25 06:41:00,66.6,66.0,29.93,North,0,0.0,0.0,98,0.00,,,0.00,meteohub,2013-06-25 10:41:00,
2013-06-25 06:46:00,66.7,66.2,29.94,North,0,0.0,0.0,98,0.00,,,0.00,meteohub,2013-06-25 10:46:00,
2013-06-25 06:51:00,66.7,66.2,29.94,North,0,0.0,0.0,98,0.00,,,0.00,meteohub,2013-06-25 10:51:00,
2013-06-25 06:56:00,66.9,66.4,29.94,North,0,0.0,0.0,98,0.00,,,0.00,meteohub,2013-06-25 10:56:00,
2013-06-25 07:01:00,67.1,66.6,29.95,North,0,0.0,0.0,98,0.00,,,0.00,meteohub,2013-06-25 11:01:00,
2013-06-25 07:06:00,67.3,66.7,29.95,North,0,0.0,0.0,98,0.00,,,0.00,meteohub,2013-06-25 11:06:00,
2013-06-25 07:11:00,67.5,66.9,29.96,North,0,0.0,0.0,98,0.00,,,0.00,meteohub,2013-06-25 11:11:00,
2013-06-25 07:16:00,67.6,67.1,29.97,NW,315,0.0,0.0,98,0.00,,,0.00,meteohub,2013-06-25 11:16:00,
2013-06-25 07:21:00,67.6,67.1,29.97,NW,315,0.0,0.0,98,0.01,,,0.01,meteohub,2013-06-25 11:21:00,
2013-06-25 07:27:00,67.6,67.1,29.97,South,180,0.0,2.0,98,0.06,,,0.04,meteohub,2013-06-25 11:27:00,
2013-06-25 07:32:00,67.5,66.9,29.97,West,270,1.0,2.0,98,0.07,,,0.07,meteohub,2013-06-25 11:32:00,
2013-06-25 07:37:00,67.5,66.9,29.98,North,0,3.0,3.0,98,0.08,,,0.08,meteohub,2013-06-25 11:37:00,
2013-06-25 07:42:00,67.5,66.9,29.98,West,270,2.0,3.0,98,0.09,,,0.09,meteohub,2013-06-25 11:42:00,
2013-06-25 07:47:00,67.3,66.7,29.99,South,180,2.0,5.0,98,0.11,,,0.11,meteohub,2013-06-25 11:47:00,
2013-06-25 07:52:00,67.3,66.7,29.98,West,270,0.0,5.0,98,0.14,,,0.14,meteohub,2013-06-25 11:52:00,
2013-06-25 07:57:00,67.3,66.7,29.97,NE,45,0.0,5.0,98,0.15,,,0.15,meteohub,2013-06-25 11:57:00,
2013-06-25 08:02:00,67.3,66.9,29.95,SE,135,2.0,2.0,99,0.18,,,0.18,meteohub,2013-06-25 12:02:00,
2013-06-25 08:07:00,67.3,66.9,29.96,SE,135,2.0,2.0,99,0.18,,,0.18,meteohub,2013-06-25 12:07:00,
2013-06-25 08:12:00,67.3,66.9,29.94,NE,45,0.0,2.0,99,0.18,,,0.18,meteohub,2013-06-25 12:12:00,
2013-06-25 08:17:00,67.3,66.9,29.94,NE,45,0.0,2.0,99,0.20,,,0.21,meteohub,2013-06-25 12:17:00,
2013-06-25 08:22:00,67.1,66.7,29.94,NE,45,0.0,2.0,99,0.20,,,0.22,meteohub,2013-06-25 12:22:00,
2013-06-25 08:28:00,67.1,66.7,29.94,South,180,0.0,0.0,99,0.17,,,0.22,meteohub,2013-06-25 12:28:00,
2013-06-25 08:33:00,67.1,66.7,29.92,East,90,0.0,0.0,99,0.15,,,0.24,meteohub,2013-06-25 12:33:00,
2013-06-25 08:38:00,67.1,66.7,29.92,East,90,0.0,0.0,99,0.15,,,0.24,meteohub,2013-06-25 12:38:00,
2013-06-25 08:43:00,67.3,66.9,29.93,South,180,0.0,0.0,99,0.13,,,0.24,meteohub,2013-06-25 12:43:00,
2013-06-25 08:48:00,67.3,66.9,29.94,SW,225,0.0,0.0,99,0.12,,,0.24,meteohub,2013-06-25 12:48:00,
2013-06-25 08:53:00,67.5,67.1,29.94,SW,225,0.0,0.0,99,0.09,,,0.24,meteohub,2013-06-25 12:53:00,
2013-06-25 08:58:00,67.5,67.1,29.95,SW,225,0.0,0.0,99,0.07,,,0.24,meteohub,2013-06-25 12:58:00,
2013-06-25 09:03:00,67.6,67.3,29.95,SW,225,0.0,0.0,99,0.06,,,0.24,meteohub,2013-06-25 13:03:00,
2013-06-25 09:08:00,67.8,67.5,29.95,NW,315,0.0,0.0,99,0.06,,,0.24,meteohub,2013-06-25 13:08:00,
2013-06-25 09:14:00,67.8,67.5,29.95,South,180,0.0,0.0,99,0.02,,,0.24,meteohub,2013-06-25 13:14:00,
2013-06-25 09:19:00,68.0,67.6,29.95,South,180,0.0,0.0,99,0.02,,,0.24,meteohub,2013-06-25 13:19:00,
2013-06-25 09:24:00,67.8,67.5,29.96,North,0,1.0,0.0,99,0.01,,,0.24,meteohub,2013-06-25 13:24:00,
2013-06-25 09:29:00,68.0,67.6,29.97,NW,315,0.0,2.0,99,0.01,,,0.24,meteohub,2013-06-25 13:29:00,
2013-06-25 09:34:00,67.8,67.5,29.98,NW,315,0.0,2.0,99,0.00,,,0.24,meteohub,2013-06-25 13:34:00,
2013-06-25 09:39:00,67.8,67.5,29.98,NW,315,0.0,2.0,99,0.00,,,0.24,meteohub,2013-06-25 13:39:00,
2013-06-25 09:44:00,67.8,67.5,29.98,SW,225,0.0,1.0,99,0.00,,,0.24,meteohub,2013-06-25 13:44:00,
2013-06-25 09:50:00,67.8,67.5,29.96,East,90,1.0,0.0,99,0.00,,,0.24,meteohub,2013-06-25 13:50:00,
2013-06-25 09:55:00,67.8,67.5,29.96,SW,225,0.0,2.0,99,0.01,,,0.25,meteohub,2013-06-25 13:55:00,
2013-06-25 10:00:00,67.8,67.5,29.95,SE,135,0.0,2.0,99,0.01,,,0.25,meteohub,2013-06-25 14:00:00,
2013-06-25 10:05:00,68.0,67.6,29.95,West,270,0.0,2.0,99,0.01,,,0.25,meteohub,2013-06-25 14:05:00,
2013-06-25 10:10:00,68.0,67.6,29.95,West,270,0.0,1.0,99,0.01,,,0.25,meteohub,2013-06-25 14:10:00,
2013-06-25 10:15:00,68.2,67.8,29.92,East,90,0.0,0.0,99,0.01,,,0.25,meteohub,2013-06-25 14:15:00,
2013-06-25 10:20:00,68.2,67.8,29.90,South,180,0.0,2.0,99,0.01,,,0.25,meteohub,2013-06-25 14:20:00,
2013-06-25 10:25:00,68.4,68.0,29.88,South,180,0.0,2.0,99,0.01,,,0.25,meteohub,2013-06-25 14:25:00,
2013-06-25 10:30:00,68.5,68.2,29.86,NE,45,0.0,2.0,99,0.01,,,0.25,meteohub,2013-06-25 14:30:00,
2013-06-25 10:36:00,68.7,68.4,29.87,SW,225,2.0,0.0,99,0.01,,,0.25,meteohub,2013-06-25 14:36:00,
2013-06-25 10:41:00,68.7,68.4,29.88,SW,225,0.0,3.0,99,0.01,,,0.25,meteohub,2013-06-25 14:41:00,
2013-06-25 10:46:00,68.9,68.5,29.87,SE,135,0.0,3.0,99,0.00,,,0.25,meteohub,2013-06-25 14:46:00,
2013-06-25 10:51:00,68.9,68.5,29.89,West,270,0.0,2.0,99,0.00,,,0.25,meteohub,2013-06-25 14:51:00,
2013-06-25 10:56:00,68.9,68.5,29.88,SW,225,0.0,1.0,99,0.00,,,0.25,meteohub,2013-06-25 14:56:00,
2013-06-25 11:01:00,68.9,68.5,29.89,SW,225,0.0,1.0,99,0.00,,,0.25,meteohub,2013-06-25 15:01:00,
2013-06-25 11:06:00,69.1,68.7,29.90,SW,225,0.0,2.0,99,0.00,,,0.25,meteohub,2013-06-25 15:06:00,
2013-06-25 11:11:00,69.4,69.1,29.90,SW,225,0.0,2.0,99,0.00,,,0.25,meteohub,2013-06-25 15:11:00,
2013-06-25 11:17:00,69.4,69.1,29.90,SW,225,4.0,4.0,99,0.00,,,0.25,meteohub,2013-06-25 15:17:00,
2013-06-25 11:22:00,69.3,68.9,29.90,SW,225,2.0,4.0,99,0.00,,,0.25,meteohub,2013-06-25 15:22:00,
2013-06-25 11:27:00,69.4,69.1,29.91,SW,225,0.0,4.0,99,0.00,,,0.25,meteohub,2013-06-25 15:27:00,
2013-06-25 11:32:00,69.4,69.1,29.91,North,0,1.0,4.0,99,0.00,,,0.25,meteohub,2013-06-25 15:32:00,
2013-06-25 11:37:00,69.6,69.3,29.91,SW,225,0.0,4.0,99,0.00,,,0.25,meteohub,2013-06-25 15:37:00,
2013-06-25 11:42:00,69.8,69.3,29.91,SW,225,0.0,4.0,98,0.00,,,0.25,meteohub,2013-06-25 15:42:00,
2013-06-25 11:47:00,70.2,69.6,29.91,West,270,0.0,2.0,98,0.00,,,0.25,meteohub,2013-06-25 15:47:00,
2013-06-25 11:52:00,70.5,70.0,29.92,East,90,0.0,2.0,98,0.00,,,0.25,meteohub,2013-06-25 15:52:00,
2013-06-25 11:57:00,70.7,70.2,29.92,SW,225,0.0,2.0,98,0.00,,,0.25,meteohub,2013-06-25 15:57:00,
2013-06-25 12:02:00,71.1,70.5,29.92,SW,225,0.0,0.0,98,0.00,,,0.25,meteohub,2013-06-25 16:02:00,
2013-06-25 12:07:00,71.2,70.7,29.92,South,180,2.0,0.0,98,0.00,,,0.25,meteohub,2013-06-25 16:07:00,
2013-06-25 12:12:00,71.8,70.9,29.92,SW,225,0.0,2.0,97,0.00,,,0.25,meteohub,2013-06-25 16:12:00,
2013-06-25 12:17:00,72.0,71.1,29.92,SW,225,0.0,2.0,97,0.00,,,0.25,meteohub,2013-06-25 16:17:00,
2013-06-25 12:22:00,72.0,71.1,29.92,SW,225,0.0,2.0,97,0.00,,,0.25,meteohub,2013-06-25 16:22:00,
2013-06-25 12:27:00,72.9,71.6,29.92,South,180,0.0,2.0,96,0.00,,,0.25,meteohub,2013-06-25 16:27:00,
2013-06-25 12:32:00,73.2,71.8,29.92,SW,225,0.0,2.0,95,0.00,,,0.25,meteohub,2013-06-25 16:32:00,
2013-06-25 12:37:00,73.6,72.1,29.92,SW,225,0.0,2.0,95,0.00,,,0.25,meteohub,2013-06-25 16:37:00,
2013-06-25 12:42:00,73.8,72.0,29.92,SW,225,1.0,2.0,94,0.00,,,0.25,meteohub,2013-06-25 16:42:00,
2013-06-25 12:47:00,73.9,72.1,29.92,SW,225,0.0,2.0,94,0.00,,,0.25,meteohub,2013-06-25 16:47:00,
2013-06-25 12:52:00,73.8,71.6,29.92,South,180,0.0,2.0,93,0.00,,,0.25,meteohub,2013-06-25 16:52:00,
2013-06-25 12:57:00,73.8,71.2,29.92,North,0,0.0,1.0,92,0.00,,,0.25,meteohub,2013-06-25 16:57:00,
2013-06-25 13:02:00,73.9,71.4,29.92,SW,225,1.0,1.0,92,0.00,,,0.25,meteohub,2013-06-25 17:02:00,
2013-06-25 13:08:00,73.8,70.9,29.91,South,180,2.0,2.0,91,0.00,,,0.25,meteohub,2013-06-25 17:08:00,
2013-06-25 13:13:00,73.8,70.9,29.92,SW,225,0.0,2.0,91,0.00,,,0.25,meteohub,2013-06-25 17:13:00,
2013-06-25 13:18:00,74.1,71.2,29.91,East,90,0.0,2.0,91,0.00,,,0.25,meteohub,2013-06-25 17:18:00,
2013-06-25 13:23:00,74.7,71.8,29.91,West,270,0.0,2.0,91,0.00,,,0.25,meteohub,2013-06-25 17:23:00,
2013-06-25 13:28:00,75.2,72.1,29.92,South,180,0.0,2.0,90,0.00,,,0.25,meteohub,2013-06-25 17:28:00,
2013-06-25 13:33:00,75.6,72.1,29.91,East,90,0.0,1.0,89,0.00,,,0.25,meteohub,2013-06-25 17:33:00,
2013-06-25 13:38:00,76.1,72.9,29.91,SE,135,0.0,3.0,90,0.00,,,0.25,meteohub,2013-06-25 17:38:00,
2013-06-25 13:43:00,76.3,73.0,29.92,West,270,0.0,3.0,90,0.00,,,0.25,meteohub,2013-06-25 17:43:00,
2013-06-25 13:48:00,76.5,73.0,29.91,NE,45,2.0,2.0,89,0.00,,,0.25,meteohub,2013-06-25 17:48:00,
2013-06-25 13:54:00,76.6,72.9,29.91,North,0,0.0,2.0,88,0.00,,,0.25,meteohub,2013-06-25 17:54:00,
2013-06-25 13:59:00,76.5,73.0,29.91,East,90,0.0,2.0,89,0.00,,,0.25,meteohub,2013-06-25 17:59:00,
2013-06-25 14:04:00,76.5,73.0,29.91,NE,45,0.0,2.0,89,0.00,,,0.25,meteohub,2013-06-25 18:04:00,
2013-06-25 14:09:00,76.1,72.9,29.91,North,0,0.0,0.0,90,0.00,,,0.25,meteohub,2013-06-25 18:09:00,
2013-06-25 14:14:00,76.3,73.0,29.91,North,0,2.0,0.0,90,0.00,,,0.25,meteohub,2013-06-25 18:14:00,
2013-06-25 14:19:00,77.0,73.6,29.90,SW,225,0.0,0.0,89,0.00,,,0.25,meteohub,2013-06-25 18:19:00,
2013-06-25 14:24:00,77.5,73.8,29.89,SW,225,2.0,2.0,88,0.00,,,0.25,meteohub,2013-06-25 18:24:00,
2013-06-25 14:29:00,78.1,73.2,29.89,SW,225,4.0,4.0,85,0.00,,,0.25,meteohub,2013-06-25 18:29:00,
2013-06-25 14:35:00,78.3,73.0,29.88,East,90,0.0,4.0,84,0.00,,,0.25,meteohub,2013-06-25 18:35:00,
2013-06-25 14:40:00,78.3,73.0,29.86,North,0,0.0,4.0,84,0.00,,,0.25,meteohub,2013-06-25 18:40:00,
2013-06-25 14:45:00,78.4,73.2,29.86,NW,315,0.0,4.0,84,0.00,,,0.25,meteohub,2013-06-25 18:45:00,
2013-06-25 14:50:00,78.6,73.0,29.85,South,180,0.0,2.0,83,0.00,,,0.25,meteohub,2013-06-25 18:50:00,
2013-06-25 14:55:00,78.6,73.4,29.84,South,180,0.0,2.0,84,0.00,,,0.25,meteohub,2013-06-25 18:55:00,
2013-06-25 15:00:00,78.4,73.2,29.84,SW,225,3.0,3.0,84,0.00,,,0.25,meteohub,2013-06-25 19:00:00,
2013-06-25 15:05:00,78.4,72.9,29.83,SW,225,0.0,3.0,83,0.00,,,0.25,meteohub,2013-06-25 19:05:00,
2013-06-25 15:10:00,78.6,72.7,29.83,SE,135,0.0,3.0,82,0.00,,,0.25,meteohub,2013-06-25 19:10:00,
2013-06-25 15:16:00,79.0,73.0,29.83,East,90,0.0,3.0,82,0.00,,,0.25,meteohub,2013-06-25 19:16:00,
2013-06-25 15:21:00,79.5,73.6,29.84,NE,45,0.0,0.0,82,0.00,,,0.25,meteohub,2013-06-25 19:21:00,
2013-06-25 15:26:00,79.9,73.9,29.84,NW,315,0.0,0.0,82,0.00,,,0.25,meteohub,2013-06-25 19:26:00,
2013-06-25 15:31:00,80.4,74.5,29.84,North,0,0.0,0.0,82,0.00,,,0.25,meteohub,2013-06-25 19:31:00,
2013-06-25 15:36:00,81.0,74.7,29.85,NW,315,0.0,0.0,81,0.00,,,0.25,meteohub,2013-06-25 19:36:00,
2013-06-25 15:41:00,81.3,74.1,29.84,North,0,0.0,0.0,79,0.00,,,0.25,meteohub,2013-06-25 19:41:00,
2013-06-25 15:46:00,81.1,73.6,29.84,North,0,0.0,0.0,78,0.00,,,0.25,meteohub,2013-06-25 19:46:00,
2013-06-25 15:51:00,81.0,73.8,29.84,NE,45,0.0,0.0,79,0.00,,,0.25,meteohub,2013-06-25 19:51:00,
2013-06-25 15:56:00,80.8,73.9,29.84,North,0,0.0,0.0,80,0.00,,,0.25,meteohub,2013-06-25 19:56:00,
2013-06-25 16:02:00,80.6,73.4,29.84,NW,315,0.0,0.0,79,0.00,,,0.25,meteohub,2013-06-25 20:02:00,
2013-06-25 16:07:00,81.0,73.8,29.84,North,0,0.0,0.0,79,0.00,,,0.25,meteohub,2013-06-25 20:07:00,
2013-06-25 16:12:00,81.1,73.9,29.84,North,0,0.0,0.0,79,0.00,,,0.25,meteohub,2013-06-25 20:12:00,
2013-06-25 16:17:00,81.1,73.9,29.85,North,0,0.0,0.0,79,0.00,,,0.25,meteohub,2013-06-25 20:17:00,
2013-06-25 16:22:00,81.1,73.2,29.85,North,0,0.0,0.0,77,0.00,,,0.25,meteohub,2013-06-25 20:22:00,
2013-06-25 16:27:00,81.1,73.2,29.85,NE,45,0.0,0.0,77,0.00,,,0.25,meteohub,2013-06-25 20:27:00,
2013-06-25 16:32:00,81.3,73.4,29.86,North,0,0.0,0.0,77,0.00,,,0.25,meteohub,2013-06-25 20:32:00,
2013-06-25 16:37:00,81.3,73.4,29.86,North,0,0.0,2.0,77,0.00,,,0.25,meteohub,2013-06-25 20:37:00,
2013-06-25 16:43:00,81.3,73.8,29.86,North,0,0.0,2.0,78,0.00,,,0.25,meteohub,2013-06-25 20:43:00,
2013-06-25 16:48:00,81.1,73.2,29.86,North,0,0.0,2.0,77,0.00,,,0.25,meteohub,2013-06-25 20:48:00,
2013-06-25 16:53:00,81.1,73.6,29.86,North,0,1.0,0.0,78,0.00,,,0.25,meteohub,2013-06-25 20:53:00,
2013-06-25 16:58:00,81.1,73.2,29.86,North,0,0.0,0.0,77,0.00,,,0.25,meteohub,2013-06-25 20:58:00,
2013-06-25 17:03:00,81.1,73.9,29.86,North,0,0.0,2.0,79,0.00,,,0.25,meteohub,2013-06-25 21:03:00,
2013-06-25 17:08:00,81.0,74.1,29.86,SW,225,0.0,2.0,80,0.00,,,0.25,meteohub,2013-06-25 21:08:00,
2013-06-25 17:13:00,80.8,73.6,29.86,NW,315,1.0,2.0,79,0.00,,,0.25,meteohub,2013-06-25 21:13:00,
2013-06-25 17:18:00,80.6,73.4,29.86,South,180,0.0,4.0,79,0.00,,,0.25,meteohub,2013-06-25 21:18:00,
2013-06-25 17:24:00,80.4,74.1,29.86,NE,45,0.0,4.0,81,0.00,,,0.25,meteohub,2013-06-25 21:24:00,
2013-06-25 17:29:00,80.2,74.3,29.86,North,0,0.0,4.0,82,0.00,,,0.25,meteohub,2013-06-25 21:29:00,
2013-06-25 17:34:00,80.1,74.1,29.86,South,180,2.0,0.0,82,0.00,,,0.25,meteohub,2013-06-25 21:34:00,
2013-06-25 17:39:00,80.2,73.6,29.86,SW,225,1.0,3.0,80,0.00,,,0.25,meteohub,2013-06-25 21:39:00,
2013-06-25 17:44:00,80.1,73.4,29.86,NW,315,1.0,3.0,80,0.00,,,0.25,meteohub,2013-06-25 21:44:00,
2013-06-25 17:49:00,79.9,73.2,29.85,NE,45,0.0,3.0,80,0.00,,,0.25,meteohub,2013-06-25 21:49:00,
2013-06-25 17:54:00,79.7,73.0,29.85,NE,45,0.0,3.0,80,0.00,,,0.25,meteohub,2013-06-25 21:54:00,
2013-06-25 18:00:00,79.7,73.0,29.84,NE,45,0.0,2.0,80,0.00,,,0.25,meteohub,2013-06-25 22:00:00,
2013-06-25 18:05:00,79.5,73.2,29.84,NE,45,0.0,2.0,81,0.00,,,0.25,meteohub,2013-06-25 22:05:00,
2013-06-25 18:10:00,79.5,73.2,29.84,NE,45,0.0,0.0,81,0.00,,,0.25,meteohub,2013-06-25 22:10:00,
2013-06-25 18:15:00,79.5,73.2,29.83,SW,225,2.0,0.0,81,0.00,,,0.25,meteohub,2013-06-25 22:15:00,
2013-06-25 18:20:00,79.5,73.2,29.83,East,90,2.0,2.0,81,0.00,,,0.25,meteohub,2013-06-25 22:20:00,
2013-06-25 18:25:00,79.5,73.6,29.83,NW,315,2.0,2.0,82,0.00,,,0.25,meteohub,2013-06-25 22:25:00,
2013-06-25 18:30:00,79.5,73.6,29.83,NW,315,1.0,2.0,82,0.00,,,0.25,meteohub,2013-06-25 22:30:00,
2013-06-25 18:35:00,79.5,73.6,29.83,NW,315,0.0,2.0,82,0.00,,,0.25,meteohub,2013-06-25 22:35:00,
2013-06-25 18:40:00,79.3,73.4,29.83,West,270,2.0,2.0,82,0.00,,,0.25,meteohub,2013-06-25 22:40:00,
2013-06-25 18:46:00,79.3,73.4,29.83,NW,315,0.0,2.0,82,0.00,,,0.25,meteohub,2013-06-25 22:46:00,
2013-06-25 18:51:00,79.2,73.2,29.83,NW,315,0.0,2.0,82,0.00,,,0.25,meteohub,2013-06-25 22:51:00,
2013-06-25 18:56:00,78.8,72.9,29.83,NE,45,0.0,2.0,82,0.00,,,0.25,meteohub,2013-06-25 22:56:00,
2013-06-25 19:01:00,78.8,72.9,29.83,NE,45,0.0,0.0,82,0.00,,,0.25,meteohub,2013-06-25 23:01:00,
2013-06-25 19:06:00,78.6,73.4,29.83,North,0,0.0,0.0,84,0.00,,,0.25,meteohub,2013-06-25 23:06:00,
2013-06-25 19:11:00,78.4,73.2,29.83,NE,45,0.0,0.0,84,0.00,,,0.25,meteohub,2013-06-25 23:11:00,
2013-06-25 19:16:00,78.3,73.4,29.83,NE,45,0.0,0.0,85,0.00,,,0.25,meteohub,2013-06-25 23:16:00,
2013-06-25 19:21:00,78.1,73.2,29.83,NE,45,0.0,0.0,85,0.00,,,0.25,meteohub,2013-06-25 23:21:00,
2013-06-25 19:26:00,77.7,73.2,29.83,NW,315,0.0,0.0,86,0.00,,,0.25,meteohub,2013-06-25 23:26:00,
2013-06-25 19:32:00,77.4,72.9,29.84,North,0,0.0,0.0,86,0.00,,,0.25,meteohub,2013-06-25 23:32:00,
2013-06-25 19:37:00,77.2,72.7,29.84,North,0,0.0,0.0,86,0.00,,,0.25,meteohub,2013-06-25 23:37:00,
2013-06-25 19:42:00,77.0,72.5,29.84,North,0,0.0,0.0,86,0.00,,,0.25,meteohub,2013-06-25 23:42:00,
2013-06-25 19:47:00,76.8,72.7,29.84,North,0,0.0,0.0,87,0.00,,,0.25,meteohub,2013-06-25 23:47:00,
2013-06-25 19:52:00,76.6,72.5,29.83,East,90,0.0,0.0,87,0.00,,,0.25,meteohub,2013-06-25 23:52:00,
2013-06-25 19:57:00,76.6,72.5,29.83,East,90,0.0,0.0,87,0.00,,,0.25,meteohub,2013-06-25 23:57:00,
2013-06-25 20:02:00,76.6,72.5,29.83,East,90,0.0,0.0,87,0.00,,,0.25,meteohub,2013-06-26 00:02:00,
2013-06-25 20:07:00,76.5,72.3,29.84,East,90,0.0,0.0,87,0.00,,,0.25,meteohub,2013-06-26 00:07:00,
2013-06-25 20:12:00,76.3,72.5,29.83,East,90,0.0,0.0,88,0.00,,,0.25,meteohub,2013-06-26 00:12:00,
2013-06-25 20:17:00,75.9,72.5,29.83,East,90,0.0,0.0,89,0.00,,,0.25,meteohub,2013-06-26 00:17:00,
2013-06-25 20:22:00,75.7,72.3,29.83,East,90,0.0,0.0,89,0.00,,,0.25,meteohub,2013-06-26 00:22:00,
2013-06-25 20:27:00,75.6,72.5,29.83,SW,225,0.0,0.0,90,0.00,,,0.25,meteohub,2013-06-26 00:27:00,
2013-06-25 20:32:00,75.4,72.3,29.83,South,180,0.0,0.0,90,0.00,,,0.25,meteohub,2013-06-26 00:32:00,
2013-06-25 20:37:00,75.2,72.1,29.83,South,180,0.0,0.0,90,0.00,,,0.25,meteohub,2013-06-26 00:37:00,
2013-06-25 20:43:00,75.2,72.1,29.83,South,180,0.0,0.0,90,0.00,,,0.25,meteohub,2013-06-26 00:43:00,
2013-06-25 20:48:00,74.8,72.3,29.83,NNE,23,0.0,0.0,92,0.00,,,0.25,meteohub,2013-06-26 00:48:00,
2013-06-25 20:53:00,74.7,72.1,29.84,West,270,0.0,0.0,92,0.00,,,0.25,meteohub,2013-06-26 00:53:00,
2013-06-25 20:58:00,74.5,72.3,29.84,SW,225,0.0,0.0,93,0.01,,,0.26,meteohub,2013-06-26 00:58:00,
2013-06-25 21:03:00,74.3,72.5,29.83,SW,225,0.0,0.0,94,0.01,,,0.26,meteohub,2013-06-26 01:03:00,
2013-06-25 21:08:00,74.1,72.3,29.83,NW,315,0.0,0.0,94,0.02,,,0.27,meteohub,2013-06-26 01:08:00,
2013-06-25 21:13:00,73.9,72.5,29.83,NW,315,0.0,0.0,95,0.02,,,0.27,meteohub,2013-06-26 01:13:00,
2013-06-25 21:18:00,73.8,72.3,29.84,NW,315,0.0,0.0,95,0.04,,,0.28,meteohub,2013-06-26 01:18:00,
2013-06-25 21:24:00,73.6,72.1,29.84,NW,315,0.0,0.0,95,0.04,,,0.28,meteohub,2013-06-26 01:24:00,
2013-06-25 21:29:00,73.4,72.0,29.85,NW,315,0.0,0.0,95,0.05,,,0.30,meteohub,2013-06-26 01:29:00,
2013-06-25 21:34:00,73.2,71.4,29.84,NW,315,0.0,0.0,94,0.05,,,0.30,meteohub,2013-06-26 01:34:00,
2013-06-25 21:39:00,73.2,71.8,29.85,NW,315,0.0,0.0,95,0.05,,,0.30,meteohub,2013-06-26 01:39:00,
2013-06-25 21:44:00,73.0,71.6,29.84,NW,315,0.0,0.0,95,0.06,,,0.31,meteohub,2013-06-26 01:44:00,
2013-06-25 21:49:00,73.0,71.6,29.85,NW,315,0.0,0.0,95,0.06,,,0.31,meteohub,2013-06-26 01:49:00,
2013-06-25 21:54:00,73.0,71.8,29.84,NW,315,0.0,1.0,96,0.07,,,0.32,meteohub,2013-06-26 01:54:00,
2013-06-25 21:59:00,73.0,71.8,29.84,NW,315,0.0,1.0,96,0.06,,,0.32,meteohub,2013-06-26 01:59:00,
2013-06-25 22:05:00,73.0,71.8,29.84,NW,315,0.0,0.0,96,0.06,,,0.32,meteohub,2013-06-26 02:05:00,
2013-06-25 22:10:00,73.0,71.8,29.84,NW,315,0.0,0.0,96,0.05,,,0.32,meteohub,2013-06-26 02:10:00,
2013-06-25 22:15:00,72.9,71.6,29.84,NW,315,0.0,0.0,96,0.05,,,0.32,meteohub,2013-06-26 02:15:00,
2013-06-25 22:20:00,72.7,71.4,29.84,NW,315,0.0,0.0,96,0.04,,,0.32,meteohub,2013-06-26 02:20:00,
2013-06-25 22:25:00,72.7,71.8,29.85,NW,315,0.0,0.0,97,0.04,,,0.32,meteohub,2013-06-26 02:25:00,
2013-06-25 22:30:00,72.7,71.8,29.84,North,0,0.0,0.0,97,0.02,,,0.32,meteohub,2013-06-26 02:30:00,
2013-06-25 22:35:00,72.7,71.8,29.85,North,0,0.0,0.0,97,0.04,,,0.33,meteohub,2013-06-26 02:35:00,
2013-06-25 22:40:00,72.7,71.8,29.85,North,0,0.0,0.0,97,0.02,,,0.33,meteohub,2013-06-26 02:40:00,
2013-06-25 22:45:00,72.7,71.8,29.85,SW,225,0.0,0.0,97,0.02,,,0.33,meteohub,2013-06-26 02:45:00,
2013-06-25 22:51:00,72.7,71.8,29.85,SW,225,0.0,0.0,97,0.01,,,0.33,meteohub,2013-06-26 02:51:00,
2013-06-25 22:56:00,72.7,71.8,29.86,SW,225,0.0,0.0,97,0.01,,,0.33,meteohub,2013-06-26 02:56:00,
2013-06-25 23:01:00,72.7,71.8,29.85,South,180,1.0,0.0,97,0.01,,,0.33,meteohub,2013-06-26 03:01:00,
2013-06-25 23:06:00,72.7,71.8,29.85,South,180,0.0,1.0,97,0.02,,,0.34,meteohub,2013-06-26 03:06:00,
2013-06-25 23:11:00,72.7,71.8,29.86,SW,225,0.0,2.0,97,0.02,,,0.34,meteohub,2013-06-26 03:11:00,
2013-06-25 23:16:00,72.7,71.8,29.86,SW,225,0.0,2.0,97,0.02,,,0.34,meteohub,2013-06-26 03:16:00,
2013-06-25 23:21:00,72.5,71.6,29.86,East,90,0.0,2.0,97,0.02,,,0.34,meteohub,2013-06-26 03:21:00,
2013-06-25 23:26:00,72.0,71.1,29.86,NE,45,0.0,2.0,97,0.02,,,0.34,meteohub,2013-06-26 03:26:00,
2013-06-25 23:32:00,71.6,70.7,29.87,West,270,0.0,2.0,97,0.02,,,0.34,meteohub,2013-06-26 03:32:00,
2013-06-25 23:37:00,71.2,70.7,29.88,West,270,0.0,2.0,98,0.01,,,0.34,meteohub,2013-06-26 03:37:00,
2013-06-25 23:42:00,71.1,70.5,29.90,NW,315,1.0,0.0,98,0.01,,,0.34,meteohub,2013-06-26 03:42:00,
2013-06-25 23:47:00,70.7,70.2,29.89,SW,225,3.0,3.0,98,0.07,,,0.40,meteohub,2013-06-26 03:47:00,
2013-06-25 23:52:00,70.5,70.0,29.89,SW,225,0.0,3.0,98,0.07,,,0.40,meteohub,2013-06-26 03:52:00,
2013-06-25 23:57:00,70.2,69.6,29.88,SW,225,0.0,4.0,98,0.07,,,0.40,meteohub,2013-06-26 03:57:00,